Time;durP1;ratioP1;P1;durP2;ratioP2;P2;SDS_P1;SDS_P2;PMS_P1;PMS_P2;Temp;Humidity;BMP_temperature;BMP_pressure;BME280_temperature;BME280_humidity;BME280_pressure;Samples;Min_cycle;Max_cycle;Signal;HPM_P1;HPM_P2
2021/06/08 00:00:04;;;;;;;;;;;;;;;15.05;100.00;96306.34;1037992;28;19912;-47
2021/06/08 00:00:34;;;;;;;;;;;;;;;15.07;100.00;96301.63;1036671;28;19909;-47
2021/06/08 00:01:04;;;;;;;;;;;;;;;15.05;100.00;96310.84;1036881;28;19997;-48
2021/06/08 00:01:35;;;;;;;;;;;;;;;15.06;100.00;96307.16;1033381;28;19992;-47
2021/06/08 00:02:05;;;;;;;;;;;;;;;15.05;100.00;96308.19;1032874;28;20004;-48
2021/06/08 00:02:35;;;;;;;;;;;;;;;15.05;100.00;96302.91;1036930;28;19909;-49
2021/06/08 00:03:06;;;;;;;;;;;;;;;15.02;100.00;96303.34;1036723;28;19906;-46
2021/06/08 00:03:37;;;;;;;;;;;;;;;15.00;100.00;96308.84;1041435;28;19905;-48
2021/06/08 00:04:07;;;;;;;;;;;;;;;15.00;100.00;96306.19;1041274;28;19905;-47
2021/06/08 00:04:37;;;;;;;;;;;;;;;15.03;100.00;96305.75;1041131;28;19905;-48
2021/06/08 00:05:08;;;;;;;;;;;;;;;15.00;100.00;96308.84;1041583;28;19909;-47
2021/06/08 00:05:38;;;;;;;;;;;;;;;15.01;100.00;96307.81;1044811;28;20373;-47
2021/06/08 00:06:09;;;;;;;;;;;;;;;15.01;100.00;96304.34;1043175;28;19940;-47
2021/06/08 00:06:39;;;;;;;;;;;;;;;15.02;100.00;96303.34;1040973;28;19905;-47
2021/06/08 00:07:09;;;;;;;;;;;;;;;14.97;100.00;96305.81;1040901;28;20310;-50
2021/06/08 00:07:40;;;;;;;;;;;;;;;14.96;100.00;96307.66;1042319;28;19927;-47
2021/06/08 00:08:10;;;;;;;;;;;;;;;14.96;100.00;96307.66;1045300;28;19908;-47
2021/06/08 00:08:40;;;;;;;;;;;;;;;14.90;100.00;96301.38;1045067;28;20987;-47
2021/06/08 00:09:11;;;;;;;;;;;;;;;14.90;100.00;96311.97;1045349;28;20238;-47
2021/06/08 00:09:41;;;;;;;;;;;;;;;14.91;100.00;96307.50;1043250;28;19904;-46
2021/06/08 00:10:11;;;;;;;;;;;;;;;14.91;100.00;96304.88;1043573;28;19912;-47
2021/06/08 00:10:41;;;;;;;;;;;;;;;14.95;100.00;96302.56;1041293;28;19905;-47
2021/06/08 00:11:13;;;;;;;;;;;;;;;14.96;100.00;96309.50;1043996;28;20239;-47
2021/06/08 00:11:44;;;;;;;;;;;;;;;14.95;100.00;96303.38;1046057;28;19913;-48
2021/06/08 00:12:14;;;;;;;;;;;;;;;14.96;100.00;96309.50;1046271;28;19904;-47
2021/06/08 00:12:45;;;;;;;;;;;;;;;14.98;100.00;96299.50;1045510;28;19970;-47
2021/06/08 00:13:15;;;;;;;;;;;;;;;15.00;100.00;96305.38;1045847;28;19972;-47
2021/06/08 00:13:45;;;;;;;;;;;;;;;15.00;100.00;96306.19;1041893;28;19909;-47
2021/06/08 00:14:16;;;;;;;;;;;;;;;14.95;100.00;96305.22;1037934;28;20283;-47
2021/06/08 00:14:46;;;;;;;;;;;;;;;14.92;100.00;96302.00;1038624;28;19905;-47
2021/06/08 00:15:16;;;;;;;;;;;;;;;14.91;100.00;96305.66;1039507;28;19943;-47
2021/06/08 00:15:46;;;;;;;;;;;;;;;14.92;100.00;96304.66;1040206;28;20004;-48
2021/06/08 00:16:17;;;;;;;;;;;;;;;14.92;100.00;96299.34;1040938;28;19909;-47
2021/06/08 00:16:47;;;;;;;;;;;;;;;14.91;100.00;96299.56;1040691;28;19917;-47
2021/06/08 00:17:18;;;;;;;;;;;;;;;14.91;100.00;96297.72;1041839;28;20337;-47
2021/06/08 00:17:48;;;;;;;;;;;;;;;14.92;100.00;96303.81;1044489;28;19919;-48
2021/06/08 00:18:18;;;;;;;;;;;;;;;14.92;100.00;96299.34;1044612;28;19908;-47
2021/06/08 00:18:49;;;;;;;;;;;;;;;14.90;100.00;96305.88;1044770;28;19908;-48
2021/06/08 00:19:19;;;;;;;;;;;;;;;14.90;100.00;96301.38;1044696;28;19988;-47
2021/06/08 00:19:49;;;;;;;;;;;;;;;14.92;100.00;96302.00;1042712;28;20316;-47
2021/06/08 00:20:19;;;;;;;;;;;;;;;14.93;100.00;96310.75;1040910;28;19912;-48
2021/06/08 00:20:50;;;;;;;;;;;;;;;14.93;100.00;96303.59;1041201;28;19959;-47
2021/06/08 00:21:20;;;;;;;;;;;;;;;14.91;100.00;96303.00;1040949;28;19913;-47
2021/06/08 00:21:50;;;;;;;;;;;;;;;14.85;100.00;96306.53;1040993;28;20298;-47
2021/06/08 00:22:21;;;;;;;;;;;;;;;14.85;100.00;96309.19;1040844;28;19920;-47
2021/06/08 00:22:51;;;;;;;;;;;;;;;14.81;100.00;96309.84;1040703;28;19924;-46
2021/06/08 00:23:21;;;;;;;;;;;;;;;14.82;100.00;96300.84;1040816;28;19918;-47
2021/06/08 00:23:52;;;;;;;;;;;;;;;14.84;100.00;96304.91;1040756;28;19915;-47
2021/06/08 00:24:22;;;;;;;;;;;;;;;14.87;100.00;96306.31;1042987;28;20411;-46
2021/06/08 00:24:52;;;;;;;;;;;;;;;14.86;100.00;96309.97;1043459;28;19929;-49
2021/06/08 00:25:22;;;;;;;;;;;;;;;14.86;100.00;96309.97;1045268;28;19920;-48
2021/06/08 00:25:53;;;;;;;;;;;;;;;14.83;100.00;96303.28;1044756;28;19913;-49
2021/06/08 00:26:23;;;;;;;;;;;;;;;14.82;100.00;96306.13;1044643;28;19920;-49
2021/06/08 00:26:53;;;;;;;;;;;;;;;14.85;100.00;96305.69;1042023;28;19917;-48
2021/06/08 00:27:24;;;;;;;;;;;;;;;14.83;100.00;96313.88;1042584;28;20376;-47
2021/06/08 00:27:56;;;;;;;;;;;;;;;14.84;100.00;96307.56;1045247;28;20350;-47
2021/06/08 00:28:27;;;;;;;;;;;;;;;14.81;100.00;96304.53;1044880;28;20357;-48
2021/06/08 00:28:57;;;;;;;;;;;;;;;14.78;100.00;96308.44;1044826;28;19909;-48
2021/06/08 00:29:27;;;;;;;;;;;;;;;14.79;100.00;96306.56;1043533;28;19915;-49
2021/06/08 00:29:58;;;;;;;;;;;;;;;14.78;100.00;96305.78;1042259;28;19920;-48
2021/06/08 00:30:28;;;;;;;;;;;;;;;14.77;100.00;96304.13;1041077;28;19944;-47
2021/06/08 00:30:58;;;;;;;;;;;;;;;14.78;100.00;96300.47;1041539;28;19908;-48
2021/06/08 00:31:29;;;;;;;;;;;;;;;14.80;100.00;96298.41;1043359;28;20280;-46
2021/06/08 00:31:59;;;;;;;;;;;;;;;14.80;100.00;96313.50;1040942;28;19909;-46
2021/06/08 00:32:29;;;;;;;;;;;;;;;14.79;100.00;96307.41;1041061;28;19940;-47
2021/06/08 00:33:00;;;;;;;;;;;;;;;14.80;100.00;96303.69;1040950;28;19908;-47
2021/06/08 00:33:30;;;;;;;;;;;;;;;14.81;100.00;96297.38;1041149;28;19909;-46
2021/06/08 00:34:00;;;;;;;;;;;;;;;14.80;100.00;96300.25;1042667;28;19937;-46
2021/06/08 00:34:30;;;;;;;;;;;;;;;14.81;100.00;96300.03;1042947;28;20019;-47
2021/06/08 00:35:01;;;;;;;;;;;;;;;14.83;100.00;96305.91;1044213;28;19962;-46
2021/06/08 00:35:32;;;;;;;;;;;;;;;14.78;100.00;96308.44;1044480;28;19916;-47
2021/06/08 00:36:03;;;;;;;;;;;;;;;14.78;100.00;96300.47;1044943;28;19958;-47
2021/06/08 00:36:33;;;;;;;;;;;;;;;14.82;100.00;96303.50;1044678;28;19995;-47
2021/06/08 00:37:03;;;;;;;;;;;;;;;14.81;100.00;96300.03;1041043;28;19948;-46
2021/06/08 00:37:33;;;;;;;;;;;;;;;14.82;100.00;96298.19;1040681;28;19928;-47
2021/06/08 00:38:04;;;;;;;;;;;;;;;14.81;100.00;96302.69;1040264;28;19909;-47
2021/06/08 00:38:34;;;;;;;;;;;;;;;14.85;100.00;96298.59;1041451;28;20385;-46
2021/06/08 00:39:04;;;;;;;;;;;;;;;14.84;100.00;96302.25;1042747;28;19907;-48
2021/06/08 00:39:35;;;;;;;;;;;;;;;14.85;100.00;96290.63;1043362;28;19936;-48
2021/06/08 00:40:05;;;;;;;;;;;;;;;14.83;100.00;96302.47;1040985;28;20219;-47
2021/06/08 00:40:40;;;;;;;;;;;;;;;14.84;100.00;96296.16;1041130;28;19972;-49
2021/06/08 00:41:11;;;;;;;;;;;;;;;14.80;100.00;96297.59;1041498;28;19908;-48
2021/06/08 00:41:42;;;;;;;;;;;;;;;14.80;100.00;96292.31;1044805;28;19947;-48
2021/06/08 00:42:13;;;;;;;;;;;;;;;14.80;100.00;96300.25;1044541;28;19923;-48
2021/06/08 00:42:43;;;;;;;;;;;;;;;14.75;100.00;96298.25;1040595;28;20004;-49
2021/06/08 00:43:14;;;;;;;;;;;;;;;14.74;100.00;96296.63;1032778;28;20363;-47
2021/06/08 00:43:44;;;;;;;;;;;;;;;14.73;100.00;96302.97;1036654;28;19902;-49
2021/06/08 00:44:16;;;;;;;;;;;;;;;14.74;100.00;96299.28;1033626;28;19906;-48
2021/06/08 00:44:46;;;;;;;;;;;;;;;14.75;100.00;96301.72;1039753;28;19961;-48
2021/06/08 00:45:16;;;;;;;;;;;;;;;14.77;100.00;96290.09;1044540;28;20346;-47
2021/06/08 00:45:47;;;;;;;;;;;;;;;14.69;100.00;96299.13;1044806;28;19901;-49
2021/06/08 00:46:18;;;;;;;;;;;;;;;14.73;100.00;96302.97;1044235;28;19987;-48
2021/06/08 00:46:48;;;;;;;;;;;;;;;14.77;100.00;96296.19;1040926;28;19901;-48
2021/06/08 00:47:19;;;;;;;;;;;;;;;14.72;100.00;96301.34;1044387;28;20277;-47
2021/06/08 00:47:49;;;;;;;;;;;;;;;14.71;100.00;96302.34;1044445;28;19947;-49
2021/06/08 00:48:20;;;;;;;;;;;;;;;14.69;100.00;96299.94;1044752;28;20004;-48
2021/06/08 00:48:50;;;;;;;;;;;;;;;14.73;100.00;96298.47;1044589;28;20432;-48
2021/06/08 00:49:20;;;;;;;;;;;;;;;14.74;100.00;96301.94;1042637;28;19946;-51
2021/06/08 00:49:52;;;;;;;;;;;;;;;14.77;100.00;96290.09;1040716;28;19908;-49
2021/06/08 00:50:22;;;;;;;;;;;;;;;14.77;100.00;96290.88;1042749;28;19909;-49
2021/06/08 00:50:52;;;;;;;;;;;;;;;14.74;100.00;96293.97;1044758;28;19901;-48
2021/06/08 00:51:23;;;;;;;;;;;;;;;14.72;100.00;96296.84;1044868;28;19900;-48
2021/06/08 00:51:53;;;;;;;;;;;;;;;14.70;100.00;96296.25;1044910;28;19920;-48
2021/06/08 00:52:23;;;;;;;;;;;;;;;14.72;100.00;96290.75;1045071;28;19952;-48
2021/06/08 00:52:54;;;;;;;;;;;;;;;14.71;100.00;96289.09;1043187;28;19904;-47
2021/06/08 00:53:24;;;;;;;;;;;;;;;14.75;100.00;96290.31;1044681;28;19987;-47
2021/06/08 00:53:54;;;;;;;;;;;;;;;14.78;100.00;96292.53;1043433;28;20327;-48
2021/06/08 00:54:25;;;;;;;;;;;;;;;14.79;100.00;96294.16;1042388;28;19989;-47
2021/06/08 00:54:55;;;;;;;;;;;;;;;14.75;100.00;96287.66;1043217;28;20416;-47
2021/06/08 00:55:25;;;;;;;;;;;;;;;14.73;100.00;96290.53;1041377;28;19975;-47
2021/06/08 00:55:56;;;;;;;;;;;;;;;14.74;100.00;96293.97;1041464;28;19908;-48
2021/06/08 00:56:26;;;;;;;;;;;;;;;14.74;100.00;96286.03;1044932;28;19901;-48
2021/06/08 00:56:58;;;;;;;;;;;;;;;14.77;100.00;96288.25;1043347;28;19925;-47
2021/06/08 00:57:29;;;;;;;;;;;;;;;14.78;100.00;96286.41;1041982;28;19913;-47
2021/06/08 00:57:59;;;;;;;;;;;;;;;14.84;100.00;96293.50;1041471;28;19917;-46
2021/06/08 00:58:29;;;;;;;;;;;;;;;14.80;100.00;96292.31;1041938;28;19917;-46
2021/06/08 00:59:00;;;;;;;;;;;;;;;14.83;100.00;96292.66;1043584;28;19944;-47
2021/06/08 00:59:30;;;;;;;;;;;;;;;14.81;100.00;96285.97;1044295;28;19908;-48
2021/06/08 01:00:00;;;;;;;;;;;;;;;14.79;100.00;96288.84;1041057;28;19909;-47
2021/06/08 01:00:31;;;;;;;;;;;;;;;14.80;100.00;96285.16;1040981;28;20427;-48
2021/06/08 01:01:01;;;;;;;;;;;;;;;14.77;100.00;96287.44;1041954;28;19909;-48
2021/06/08 01:01:31;;;;;;;;;;;;;;;14.78;100.00;96289.06;1045044;28;19916;-48
2021/06/08 01:02:02;;;;;;;;;;;;;;;14.78;100.00;96283.78;1041289;28;19909;-49
2021/06/08 01:02:34;;;;;;;;;;;;;;;14.79;100.00;96288.03;1043002;28;19955;-47
2021/06/08 01:03:04;;;;;;;;;;;;;;;14.80;100.00;96281.69;1045115;28;19908;-47
2021/06/08 01:03:34;;;;;;;;;;;;;;;14.82;100.00;96290.22;1044703;28;19909;-47
2021/06/08 01:04:05;;;;;;;;;;;;;;;14.76;100.00;96289.28;1044810;28;19911;-52
2021/06/08 01:04:35;;;;;;;;;;;;;;;14.77;100.00;96284.78;1044494;28;19915;-47
2021/06/08 01:05:06;;;;;;;;;;;;;;;14.79;100.00;96293.31;1044397;28;20365;-47
2021/06/08 01:05:36;;;;;;;;;;;;;;;14.78;100.00;96287.22;1044698;28;19991;-48
2021/06/08 01:06:07;;;;;;;;;;;;;;;14.80;100.00;96295.75;1044481;28;19915;-47
2021/06/08 01:06:37;;;;;;;;;;;;;;;14.86;100.00;96289.59;1044074;28;20331;-48
2021/06/08 01:07:08;;;;;;;;;;;;;;;14.88;100.00;96292.84;1040424;28;19955;-47
2021/06/08 01:07:38;;;;;;;;;;;;;;;14.90;100.00;96289.97;1042024;28;19962;-50
2021/06/08 01:08:08;;;;;;;;;;;;;;;14.96;100.00;96283.00;1044710;28;19913;-47
2021/06/08 01:08:39;;;;;;;;;;;;;;;14.93;100.00;96293.00;1040918;28;19909;-48
2021/06/08 01:09:09;;;;;;;;;;;;;;;14.90;100.00;96288.13;1040947;28;19916;-47
2021/06/08 01:09:39;;;;;;;;;;;;;;;14.92;100.00;96294.03;1040893;28;19909;-47
2021/06/08 01:10:10;;;;;;;;;;;;;;;14.90;100.00;96289.97;1040957;28;19901;-46
2021/06/08 01:10:40;;;;;;;;;;;;;;;14.91;100.00;96286.31;1040909;28;19909;-46
2021/06/08 01:11:10;;;;;;;;;;;;;;;14.94;100.00;96285.88;1040865;28;20322;-47
2021/06/08 01:11:41;;;;;;;;;;;;;;;14.95;100.00;96290.13;1040903;28;19909;-47
2021/06/08 01:12:11;;;;;;;;;;;;;;;14.95;100.00;96287.47;1044362;28;19909;-47
2021/06/08 01:12:41;;;;;;;;;;;;;;;14.88;100.00;96287.53;1043469;28;20385;-47
2021/06/08 01:13:12;;;;;;;;;;;;;;;14.87;100.00;96290.41;1042499;28;19944;-47
2021/06/08 01:13:42;;;;;;;;;;;;;;;14.82;100.00;96288.41;1040920;28;20277;-47
2021/06/08 01:14:12;;;;;;;;;;;;;;;14.78;100.00;96291.72;1040660;28;20011;-47
2021/06/08 01:14:43;;;;;;;;;;;;;;;14.79;100.00;96288.03;1040945;28;19913;-48
2021/06/08 01:15:13;;;;;;;;;;;;;;;14.77;100.00;96285.59;1040865;28;20317;-48
2021/06/08 01:15:43;;;;;;;;;;;;;;;14.76;100.00;96278.69;1040997;28;19959;-48
2021/06/08 01:16:13;;;;;;;;;;;;;;;14.81;100.00;96286.78;1040508;28;19915;-48
2021/06/08 01:16:44;;;;;;;;;;;;;;;14.83;100.00;96289.22;1040502;28;20381;-48
2021/06/08 01:17:14;;;;;;;;;;;;;;;14.81;100.00;96284.13;1040721;28;19991;-47
2021/06/08 01:17:44;;;;;;;;;;;;;;;14.77;100.00;96288.25;1041390;28;20003;-48
2021/06/08 01:18:15;;;;;;;;;;;;;;;14.80;100.00;96289.66;1040102;28;19917;-47
2021/06/08 01:18:45;;;;;;;;;;;;;;;14.78;100.00;96281.91;1041426;28;19912;-47
2021/06/08 01:19:16;;;;;;;;;;;;;;;14.72;100.00;96282.78;1045325;28;19920;-47
2021/06/08 01:19:46;;;;;;;;;;;;;;;14.75;100.00;96285.81;1045264;28;20446;-47
2021/06/08 01:20:17;;;;;;;;;;;;;;;14.75;100.00;96287.66;1045352;28;19905;-47
2021/06/08 01:20:47;;;;;;;;;;;;;;;14.75;100.00;96285.00;1044421;28;20375;-47
2021/06/08 01:21:18;;;;;;;;;;;;;;;14.74;100.00;96278.06;1041096;28;20315;-47
2021/06/08 01:21:48;;;;;;;;;;;;;;;14.75;100.00;96279.69;1041369;28;19916;-47
2021/06/08 01:22:18;;;;;;;;;;;;;;;14.73;100.00;96285.22;1038509;28;19918;-48
2021/06/08 01:22:49;;;;;;;;;;;;;;;14.73;100.00;96279.13;1037424;28;20023;-46
2021/06/08 01:23:19;;;;;;;;;;;;;;;14.67;100.00;96288.75;1041815;28;19909;-47
2021/06/08 01:23:49;;;;;;;;;;;;;;;14.68;100.00;96277.13;1041958;28;19905;-47
2021/06/08 01:24:20;;;;;;;;;;;;;;;14.65;100.00;96276.72;1037083;28;19905;-51
2021/06/08 01:24:50;;;;;;;;;;;;;;;14.64;100.00;96283.06;1041475;28;19905;-47
2021/06/08 01:25:20;;;;;;;;;;;;;;;14.60;100.00;96280.00;1041533;28;19932;-47
2021/06/08 01:25:51;;;;;;;;;;;;;;;14.56;100.00;96284.94;1041410;28;19905;-47
2021/06/08 01:26:24;;;;;;;;;;;;;;;14.53;100.00;96280.06;1041266;28;19924;-48
2021/06/08 01:26:55;;;;;;;;;;;;;;;14.53;100.00;96273.94;1041302;28;20036;-47
2021/06/08 01:27:25;;;;;;;;;;;;;;;14.56;100.00;96276.16;1037390;28;20393;-47
2021/06/08 01:27:55;;;;;;;;;;;;;;;14.58;100.00;96277.56;1034274;28;19961;-47
2021/06/08 01:28:26;;;;;;;;;;;;;;;14.56;100.00;96279.63;1036438;28;20309;-48
2021/06/08 01:28:56;;;;;;;;;;;;;;;14.52;100.00;96275.78;1033835;28;19914;-47
2021/06/08 01:29:28;;;;;;;;;;;;;;;14.51;100.00;96274.16;1038588;28;19913;-46
2021/06/08 01:29:59;;;;;;;;;;;;;;;14.45;100.00;96272.38;1041392;28;20037;-46
2021/06/08 01:30:29;;;;;;;;;;;;;;;14.45;100.00;96275.00;1039009;28;19901;-48
2021/06/08 01:31:02;;;;;;;;;;;;;;;14.47;100.00;96274.81;1032908;28;19973;-46
2021/06/08 01:31:33;;;;;;;;;;;;;;;14.47;100.00;96275.63;1037099;28;20305;-46
2021/06/08 01:32:03;;;;;;;;;;;;;;;14.48;100.00;96276.44;1033531;28;19913;-46
2021/06/08 01:32:34;;;;;;;;;;;;;;;14.46;100.00;96274.00;1034025;28;19952;-47
2021/06/08 01:33:04;;;;;;;;;;;;;;;14.49;100.00;96276.22;1034027;28;19902;-46
2021/06/08 01:33:38;;;;;;;;;;;;;;;14.48;100.00;96274.59;1033095;28;19906;-46
2021/06/08 01:34:08;;;;;;;;;;;;;;;14.52;100.00;96274.97;1038975;28;20385;-47
2021/06/08 01:34:38;;;;;;;;;;;;;;;14.53;100.00;96272.13;1043568;28;19905;-47
2021/06/08 01:35:09;;;;;;;;;;;;;;;14.55;100.00;96272.69;1041543;28;19912;-46
2021/06/08 01:35:40;;;;;;;;;;;;;;;14.54;100.00;96279.00;1041243;28;19901;-46
2021/06/08 01:36:23;;;;;;;;;;;;;;;14.54;100.00;96275.56;1037228;28;19937;-46
2021/06/08 01:36:53;;;;;;;;;;;;;;;14.53;100.00;96273.94;1039019;28;19913;-46
2021/06/08 01:37:23;;;;;;;;;;;;;;;14.53;100.00;96271.28;1040872;28;20349;-46
2021/06/08 01:37:53;;;;;;;;;;;;;;;14.47;100.00;96274.81;1043449;28;19916;-47
2021/06/08 01:38:24;;;;;;;;;;;;;;;14.43;100.00;96277.06;1041680;28;19958;-47
2021/06/08 01:38:54;;;;;;;;;;;;;;;14.43;100.00;96271.78;1045514;28;19931;-47
2021/06/08 01:39:25;;;;;;;;;;;;;;;14.44;100.00;96277.88;1042537;28;20417;-48
2021/06/08 01:39:55;;;;;;;;;;;;;;;14.45;100.00;96272.38;1041601;28;19909;-47
2021/06/08 01:40:25;;;;;;;;;;;;;;;14.46;100.00;96276.66;1042720;28;19921;-47
2021/06/08 01:40:55;;;;;;;;;;;;;;;14.38;100.00;96276.94;1041419;28;19940;-48
2021/06/08 01:41:26;;;;;;;;;;;;;;;14.38;100.00;96277.72;1039902;28;19909;-48
2021/06/08 01:41:56;;;;;;;;;;;;;;;14.39;100.00;96276.72;1039347;28;19909;-48
2021/06/08 01:42:26;;;;;;;;;;;;;;;14.36;100.00;96278.97;1037102;28;19916;-48
2021/06/08 01:42:57;;;;;;;;;;;;;;;14.35;100.00;96277.34;1044379;28;19915;-46
2021/06/08 01:43:27;;;;;;;;;;;;;;;14.36;100.00;96276.31;1043981;28;19959;-47
2021/06/08 01:43:57;;;;;;;;;;;;;;;14.37;100.00;96284.03;1041285;28;20308;-46
2021/06/08 01:44:27;;;;;;;;;;;;;;;14.36;100.00;96278.97;1041338;28;19909;-46
2021/06/08 01:44:58;;;;;;;;;;;;;;;14.35;100.00;96287.94;1042887;28;19908;-51
2021/06/08 01:45:28;;;;;;;;;;;;;;;14.37;100.00;96284.03;1041179;28;19915;-47
2021/06/08 01:45:58;;;;;;;;;;;;;;;14.36;100.00;96281.59;1041300;28;20329;-47
2021/06/08 01:46:29;;;;;;;;;;;;;;;14.35;100.00;96282.66;1040983;28;19909;-50
2021/06/08 01:46:59;;;;;;;;;;;;;;;14.36;100.00;96279.78;1043452;28;19909;-47
2021/06/08 01:47:29;;;;;;;;;;;;;;;14.34;100.00;96279.19;1041861;28;20091;-49
2021/06/08 01:47:59;;;;;;;;;;;;;;;14.30;100.00;96279.81;1045656;28;19916;-51
2021/06/08 01:48:30;;;;;;;;;;;;;;;14.31;100.00;96282.25;1045352;28;19915;-47
2021/06/08 01:49:00;;;;;;;;;;;;;;;14.33;100.00;96280.22;1045555;28;20005;-50
2021/06/08 01:49:30;;;;;;;;;;;;;;;14.34;100.00;96286.31;1041554;28;19913;-48
2021/06/08 01:50:01;;;;;;;;;;;;;;;14.32;100.00;96283.09;1043587;28;19913;-47
2021/06/08 01:50:31;;;;;;;;;;;;;;;14.31;100.00;96276.94;1045578;28;19916;-49
2021/06/08 01:51:14;;;;;;;;;;;;;;;14.29;100.00;96288.81;1045421;28;19920;-47
2021/06/08 01:51:55;;;;;;;;;;;;;;;14.31;100.00;96278.81;1044379;28;19947;-48
2021/06/08 01:52:38;;;;;;;;;;;;;;;14.33;100.00;96282.88;1044145;28;19912;-48
2021/06/08 01:53:10;;;;;;;;;;;;;;;14.33;100.00;96284.69;1036839;28;20425;-50
2021/06/08 01:53:46;;;;;;;;;;;;;;;14.34;100.00;96279.19;1033084;28;19909;-47
2021/06/08 01:54:35;;;;;;;;;;;;;;;14.36;100.00;96281.59;1031155;28;20013;-48
2021/06/08 01:55:19;;;;;;;;;;;;;;;14.38;100.00;96282.22;1036180;28;19975;-48
2021/06/08 01:55:49;;;;;;;;;;;;;;;14.37;100.00;96281.41;1039648;28;20665;-47
2021/06/08 01:56:20;;;;;;;;;;;;;;;14.37;100.00;96281.41;1041204;28;19916;-48
2021/06/08 01:56:52;;;;;;;;;;;;;;;14.37;100.00;96280.59;1035689;28;19917;-47
2021/06/08 01:57:51;;;;;;;;;;;;;;;14.35;100.00;96283.44;1033004;28;19949;-47
2021/06/08 01:58:40;;;;;;;;;;;;;;;14.34;100.00;96276.53;1032569;28;19914;-49
2021/06/08 01:59:31;;;;;;;;;;;;;;;14.36;100.00;96281.59;1036699;28;19909;-47
2021/06/08 02:00:09;;;;;;;;;;;;;;;14.36;100.00;96281.59;1036020;28;19916;-49
2021/06/08 02:01:05;;;;;;;;;;;;;;;14.36;100.00;96287.72;1036564;28;20036;-47
2021/06/08 02:01:49;;;;;;;;;;;;;;;14.38;100.00;96290.16;1018664;29;19933;-51
2021/06/08 02:02:19;;;;;;;;;;;;;;;14.38;100.00;96285.69;1024602;28;19928;-48
2021/06/08 02:03:11;;;;;;;;;;;;;;;14.39;100.00;96286.47;1028891;28;20004;-47
2021/06/08 02:03:42;;;;;;;;;;;;;;;14.37;100.00;96277.94;1028857;28;20406;-48
2021/06/08 02:04:32;;;;;;;;;;;;;;;14.35;100.00;96286.09;1034754;28;19909;-48
2021/06/08 02:05:03;;;;;;;;;;;;;;;14.33;100.00;96285.53;1036566;28;19916;-48
2021/06/08 02:05:51;;;;;;;;;;;;;;;14.34;100.00;96281.03;1036852;28;19916;-47
2021/06/08 02:06:42;;;;;;;;;;;;;;;14.34;100.00;96287.13;1036323;28;19920;-48
2021/06/08 02:07:12;;;;;;;;;;;;;;;14.35;100.00;96293.25;1029136;28;20008;-50
2021/06/08 02:07:42;;;;;;;;;;;;;;;14.35;100.00;96287.94;1029105;28;19921;-47
2021/06/08 02:08:31;;;;;;;;;;;;;;;14.34;100.00;96291.63;1031278;28;19914;-48
2021/06/08 02:09:04;;;;;;;;;;;;;;;14.32;100.00;96288.38;1032932;28;20473;-48
2021/06/08 02:09:38;;;;;;;;;;;;;;;14.31;100.00;96290.19;1033394;28;19997;-48
2021/06/08 02:10:14;;;;;;;;;;;;;;;14.32;100.00;96291.84;1032816;28;19921;-47
2021/06/08 02:10:52;;;;;;;;;;;;;;;14.31;100.00;96289.41;1028912;28;19941;-47
2021/06/08 02:11:42;;;;;;;;;;;;;;;14.30;100.00;96296.53;1030351;28;19960;-47
2021/06/08 02:12:16;;;;;;;;;;;;;;;14.29;100.00;96292.25;1036619;28;20016;-47
2021/06/08 02:12:48;;;;;;;;;;;;;;;14.32;100.00;96291.84;1037012;28;20323;-49
2021/06/08 02:13:30;;;;;;;;;;;;;;;14.31;100.00;96287.56;1036410;28;19977;-47
2021/06/08 02:14:01;;;;;;;;;;;;;;;14.30;100.00;96296.53;1036675;28;19984;-47
2021/06/08 02:14:48;;;;;;;;;;;;;;;14.26;100.00;96295.34;1036136;28;20000;-47
2021/06/08 02:15:19;;;;;;;;;;;;;;;14.29;100.00;96291.47;1028907;28;19916;-47
2021/06/08 02:16:10;;;;;;;;;;;;;;;14.30;100.00;96295.72;1028852;28;20287;-47
2021/06/08 02:17:00;;;;;;;;;;;;;;;14.33;100.00;96295.28;1026196;28;19915;-47
2021/06/08 02:17:30;;;;;;;;;;;;;;;14.35;100.00;96295.91;1032994;28;19937;-47
2021/06/08 02:18:01;;;;;;;;;;;;;;;14.36;100.00;96297.50;1032683;28;19930;-48
2021/06/08 02:18:32;;;;;;;;;;;;;;;14.35;100.00;96293.25;1032794;28;19902;-47
2021/06/08 02:19:03;;;;;;;;;;;;;;;14.34;100.00;96297.72;1032958;28;19906;-47
2021/06/08 02:19:33;;;;;;;;;;;;;;;14.27;100.00;96291.69;1034408;28;19913;-47
2021/06/08 02:20:11;;;;;;;;;;;;;;;14.24;100.00;96288.63;1036852;28;19936;-48
2021/06/08 02:20:41;;;;;;;;;;;;;;;14.27;100.00;96294.31;1030318;28;20039;-46
2021/06/08 02:21:12;;;;;;;;;;;;;;;14.27;100.00;96290.84;1028681;28;19906;-47
2021/06/08 02:21:43;;;;;;;;;;;;;;;14.27;100.00;96296.13;1024270;29;19911;-46
2021/06/08 02:22:14;;;;;;;;;;;;;;;14.27;100.00;96294.31;1025296;28;20391;-48
2021/06/08 02:22:45;;;;;;;;;;;;;;;14.27;100.00;96296.97;1032891;28;19902;-47
2021/06/08 02:23:17;;;;;;;;;;;;;;;14.29;100.00;96294.09;1033332;28;19909;-47
2021/06/08 02:23:49;;;;;;;;;;;;;;;14.24;100.00;96288.63;1036786;28;19978;-47
2021/06/08 02:24:21;;;;;;;;;;;;;;;14.19;100.00;96289.25;1032506;28;20290;-49
2021/06/08 02:24:51;;;;;;;;;;;;;;;14.20;100.00;96293.53;1033152;28;19906;-48
2021/06/08 02:25:22;;;;;;;;;;;;;;;14.18;100.00;96293.75;1032722;28;19902;-50
2021/06/08 02:25:52;;;;;;;;;;;;;;;14.15;100.00;96291.53;1033144;28;20291;-49
2021/06/08 02:26:23;;;;;;;;;;;;;;;14.18;100.00;96295.56;1032765;28;20448;-47
2021/06/08 02:26:54;;;;;;;;;;;;;;;14.12;100.00;96291.97;1032795;28;19948;-46
2021/06/08 02:27:25;;;;;;;;;;;;;;;14.11;100.00;96300.13;1032602;28;20024;-46
2021/06/08 02:27:56;;;;;;;;;;;;;;;14.11;100.00;96303.56;1032529;28;20326;-47
2021/06/08 02:28:28;;;;;;;;;;;;;;;14.13;100.00;96298.88;1029036;28;20329;-47
2021/06/08 02:28:58;;;;;;;;;;;;;;;14.14;100.00;96300.50;1032820;28;19916;-47
2021/06/08 02:29:29;;;;;;;;;;;;;;;14.14;100.00;96297.03;1028291;28;20433;-47
2021/06/08 02:29:59;;;;;;;;;;;;;;;14.13;100.00;96296.22;1026605;28;20010;-47
2021/06/08 02:30:29;;;;;;;;;;;;;;;14.11;100.00;96298.28;1028631;28;20005;-47
2021/06/08 02:31:02;;;;;;;;;;;;;;;14.12;100.00;96299.91;1024539;28;19918;-47
2021/06/08 02:31:32;;;;;;;;;;;;;;;14.10;100.00;96298.50;1028392;28;20393;-48
2021/06/08 02:32:03;;;;;;;;;;;;;;;14.10;100.00;96291.34;1025977;28;19911;-47
2021/06/08 02:32:33;;;;;;;;;;;;;;;14.10;100.00;96295.84;1025195;28;20397;-47
2021/06/08 02:33:04;;;;;;;;;;;;;;;14.08;100.00;96298.72;1025009;28;19910;-47
2021/06/08 02:33:35;;;;;;;;;;;;;;;14.07;100.00;96296.28;1024836;28;20311;-47
2021/06/08 02:34:05;;;;;;;;;;;;;;;14.07;100.00;96288.31;1024768;28;20328;-49
2021/06/08 02:34:35;;;;;;;;;;;;;;;14.04;100.00;96297.50;1028787;28;20039;-46
2021/06/08 02:35:06;;;;;;;;;;;;;;;14.02;100.00;96299.56;1028709;28;20408;-47
2021/06/08 02:35:36;;;;;;;;;;;;;;;13.99;100.00;96297.34;1030699;28;19913;-48
2021/06/08 02:36:06;;;;;;;;;;;;;;;14.00;100.00;96294.47;1036982;28;19909;-47
2021/06/08 02:36:37;;;;;;;;;;;;;;;13.99;100.00;96292.84;1036939;28;19909;-47
2021/06/08 02:37:10;;;;;;;;;;;;;;;13.97;100.00;96289.59;1041078;28;20242;-47
2021/06/08 02:37:40;;;;;;;;;;;;;;;13.97;100.00;96294.09;1040903;28;20099;-47
2021/06/08 02:38:10;;;;;;;;;;;;;;;13.97;100.00;96291.44;1040851;28;20354;-47
2021/06/08 02:38:41;;;;;;;;;;;;;;;13.98;100.00;96295.69;1036919;28;20309;-47
2021/06/08 02:39:11;;;;;;;;;;;;;;;14.00;100.00;96293.69;1036978;28;19901;-47
2021/06/08 02:39:42;;;;;;;;;;;;;;;14.00;100.00;96293.69;1037057;28;19908;-47
2021/06/08 02:40:13;;;;;;;;;;;;;;;14.00;100.00;96297.13;1033003;28;19948;-48
2021/06/08 02:40:43;;;;;;;;;;;;;;;13.98;100.00;96299.19;1034487;28;19948;-48
2021/06/08 02:41:14;;;;;;;;;;;;;;;13.96;100.00;96298.56;1035348;28;20315;-48
2021/06/08 02:41:44;;;;;;;;;;;;;;;13.98;100.00;96295.69;1032994;28;19901;-47
2021/06/08 02:42:17;;;;;;;;;;;;;;;13.97;100.00;96302.03;1033065;28;19909;-47
2021/06/08 02:42:47;;;;;;;;;;;;;;;13.97;100.00;96294.91;1032549;28;20301;-48
2021/06/08 02:43:19;;;;;;;;;;;;;;;13.98;100.00;96304.47;1034613;28;19953;-46